createdAt,value
2018-12-24T00:04:24.275Z,92.20
2018-12-24T00:09:20.295Z,92.64
2018-12-24T00:14:16.316Z,93.20
2018-12-24T00:19:12.331Z,93.52
2018-12-24T00:24:08.346Z,93.98
2018-12-24T00:29:04.363Z,94.12
2018-12-24T00:34:00.384Z,94.07
2018-12-24T00:38:56.395Z,94.21
2018-12-24T00:43:52.421Z,94.60
2018-12-24T00:48:48.440Z,94.90
2018-12-24T00:53:44.463Z,94.83
2018-12-24T00:58:41.495Z,95.23
2018-12-24T01:03:37.509Z,95.24
2018-12-24T01:08:33.531Z,95.57
2018-12-24T01:13:29.545Z,95.68
2018-12-24T01:18:25.565Z,95.94
2018-12-24T01:23:21.586Z,96.01
2018-12-24T01:28:18.364Z,96.13
2018-12-24T01:33:14.438Z,96.19
2018-12-24T01:38:10.463Z,96.27
2018-12-24T01:43:06.476Z,96.29
2018-12-24T01:48:02.497Z,96.18
2018-12-24T01:52:58.518Z,96.16
2018-12-24T01:57:55.477Z,96.00
2018-12-24T02:02:51.493Z,95.94
2018-12-24T02:07:47.509Z,95.87
2018-12-24T02:12:43.496Z,95.73
2018-12-24T02:17:39.520Z,95.66
2018-12-24T02:22:35.533Z,95.59
2018-12-24T02:27:31.550Z,95.47
2018-12-24T02:32:27.571Z,95.35
2018-12-24T02:37:23.590Z,95.72
2018-12-24T02:42:20.055Z,95.88
2018-12-24T02:47:16.080Z,95.61
2018-12-24T02:52:12.094Z,94.97
2018-12-24T02:57:08.098Z,93.17
2018-12-24T03:02:04.224Z,92.98
2018-12-24T03:07:00.238Z,92.72
2018-12-24T03:11:56.265Z,92.49
2018-12-24T03:16:52.383Z,92.57
2018-12-24T03:21:48.403Z,91.76
2018-12-24T03:26:44.421Z,91.37
2018-12-24T03:31:40.446Z,91.94
2018-12-24T03:36:36.458Z,91.80
2018-12-24T03:41:32.470Z,91.71
2018-12-24T03:46:28.490Z,91.91
2018-12-24T03:51:24.518Z,91.74
2018-12-24T03:56:20.544Z,91.14
2018-12-24T04:01:16.554Z,89.83
2018-12-24T04:06:12.562Z,89.83
2018-12-24T04:11:08.596Z,90.30
2018-12-24T04:16:04.595Z,89.86
2018-12-24T04:21:00.619Z,90.63
2018-12-24T04:25:56.637Z,89.98
2018-12-24T04:30:52.641Z,89.42
2018-12-24T04:35:48.681Z,89.18
2018-12-24T04:40:44.683Z,89.60
2018-12-24T04:45:40.701Z,89.27
2018-12-24T04:50:36.717Z,86.57
2018-12-24T04:55:32.731Z,83.88
2018-12-24T05:00:28.751Z,84.50
2018-12-24T05:05:24.763Z,84.79
2018-12-24T05:10:20.779Z,84.85
2018-12-24T05:15:16.794Z,85.77
2018-12-24T05:20:12.820Z,85.04
2018-12-24T05:25:08.840Z,84.01
2018-12-24T05:30:04.957Z,83.57
2018-12-24T05:35:00.971Z,84.46
2018-12-24T05:39:56.990Z,83.78
2018-12-24T05:44:53.019Z,84.14
2018-12-24T05:49:49.038Z,84.96
2018-12-24T05:54:45.054Z,85.25
2018-12-24T05:59:41.078Z,85.15
2018-12-24T06:04:37.092Z,84.60
2018-12-24T06:09:33.113Z,85.13
2018-12-24T06:14:29.155Z,85.01
2018-12-24T06:19:25.142Z,85.41
2018-12-24T06:24:21.165Z,86.04
2018-12-24T06:29:17.238Z,85.68
2018-12-24T06:34:13.258Z,86.31
2018-12-24T06:39:09.273Z,86.29
2018-12-24T06:44:06.801Z,85.94
2018-12-24T06:49:03.214Z,86.37
2018-12-24T06:53:59.228Z,86.80
2018-12-24T06:58:55.243Z,87.14
2018-12-24T07:03:51.262Z,88.46
2018-12-24T07:08:47.278Z,89.72
2018-12-24T07:13:43.300Z,90.22
2018-12-24T07:18:39.338Z,90.75
2018-12-24T07:23:35.363Z,90.65
2018-12-24T07:28:32.083Z,90.15
2018-12-24T07:33:28.066Z,88.40
2018-12-24T07:43:31.963Z,86.97
2018-12-24T07:48:27.965Z,86.68
2018-12-24T07:53:24.000Z,87.24
2018-12-24T07:58:20.748Z,87.01
2018-12-24T08:03:16.775Z,86.80
2018-12-24T08:08:12.809Z,86.63
2018-12-24T08:13:08.837Z,87.13
2018-12-24T08:18:12.686Z,87.23
2018-12-24T08:23:08.724Z,86.63
2018-12-24T08:28:25.187Z,85.80
2018-12-24T08:33:21.403Z,86.22
2018-12-24T08:38:17.436Z,85.54
2018-12-24T08:43:13.498Z,85.01
2018-12-24T08:48:09.526Z,84.37
2018-12-24T08:53:05.550Z,84.07
2018-12-24T08:58:22.213Z,82.81
2018-12-24T09:03:18.407Z,82.91
2018-12-24T09:08:14.522Z,80.35
2018-12-24T09:13:10.556Z,78.98
2018-12-24T09:18:06.590Z,78.75
2018-12-24T09:23:02.625Z,79.25
2018-12-24T09:27:59.321Z,78.15
2018-12-24T09:32:55.460Z,76.83
2018-12-24T09:37:51.493Z,76.14
2018-12-24T09:42:47.527Z,77.84
2018-12-24T09:47:43.553Z,77.41
2018-12-24T09:52:39.690Z,77.30
2018-12-24T09:58:17.751Z,77.71
2018-12-24T10:03:14.829Z,78.16
2018-12-24T10:08:53.032Z,77.78
2018-12-24T10:13:49.283Z,78.48
2018-12-24T10:18:45.890Z,76.64
2018-12-24T10:24:23.817Z,76.76
2018-12-24T10:29:20.440Z,77.65
2018-12-24T10:34:17.089Z,78.49
2018-12-24T10:39:33.523Z,76.97
2018-12-24T10:44:52.056Z,79.13
2018-12-24T10:49:48.925Z,77.22
2018-12-24T10:54:45.966Z,75.67
2018-12-24T11:00:24.110Z,76.34
2018-12-24T11:05:20.294Z,74.96
2018-12-24T11:10:16.329Z,74.69
2018-12-24T11:26:13.397Z,73.52
2018-12-24T11:36:34.842Z,76.60
2018-12-24T11:41:31.610Z,76.03
2018-12-24T11:46:30.582Z,75.85
2018-12-24T11:51:27.772Z,76.16
2018-12-24T11:56:24.684Z,76.13
2018-12-24T12:01:21.766Z,76.70
2018-12-24T12:06:38.551Z,75.08
2018-12-24T12:11:35.199Z,75.58
2018-12-24T12:16:51.377Z,75.86
2018-12-24T12:21:48.265Z,76.77
2018-12-24T12:26:46.448Z,76.73
2018-12-24T12:31:43.310Z,75.93
2018-12-24T12:36:40.274Z,75.96
2018-12-24T12:41:37.142Z,76.56
2018-12-24T12:46:34.037Z,76.74
2018-12-24T12:52:12.103Z,75.67
2018-12-24T12:57:28.788Z,76.06
2018-12-24T13:02:25.673Z,76.71
2018-12-24T13:07:24.061Z,75.02
2018-12-24T13:12:22.323Z,74.69
2018-12-24T13:23:03.251Z,75.27
2018-12-24T13:28:20.007Z,75.98
2018-12-24T13:33:36.734Z,76.27
2018-12-24T13:38:34.470Z,76.67
2018-12-24T13:43:31.382Z,75.71
2018-12-24T13:49:09.584Z,75.68
2018-12-24T13:54:06.835Z,76.15
2018-12-24T14:04:51.559Z,76.00
2018-12-24T14:15:34.955Z,75.67
2018-12-24T14:20:31.459Z,76.58
2018-12-24T14:26:09.383Z,76.34
2018-12-24T14:31:06.987Z,76.30
2018-12-24T14:36:03.844Z,75.49
2018-12-24T14:41:00.629Z,75.85
2018-12-24T14:46:25.398Z,75.78
2018-12-24T14:51:17.022Z,76.95
2018-12-24T14:56:13.767Z,77.93
2018-12-24T15:01:10.594Z,78.19
2018-12-24T15:06:10.107Z,78.58
2018-12-24T15:11:27.180Z,77.93
2018-12-24T15:16:43.873Z,77.96
2018-12-24T15:27:42.287Z,78.55
2018-12-24T15:38:25.545Z,80.15
2018-12-24T15:44:02.988Z,81.15
2018-12-24T15:48:59.579Z,81.12
2018-12-24T15:54:37.961Z,79.78
2018-12-24T15:59:54.642Z,80.05
2018-12-24T16:04:55.862Z,80.86
2018-12-24T16:09:58.250Z,80.38
2018-12-24T16:14:55.048Z,79.12
2018-12-24T16:20:31.757Z,79.30
2018-12-24T16:25:28.973Z,79.34
2018-12-24T16:30:25.640Z,80.26
2018-12-24T16:35:22.458Z,80.03
2018-12-24T16:46:38.087Z,80.09
2018-12-24T16:51:56.612Z,80.88
2018-12-24T16:57:34.760Z,81.02
2018-12-24T17:03:12.891Z,81.58
2018-12-24T17:13:15.959Z,83.21
2018-12-24T17:24:01.923Z,80.60
2018-12-24T17:29:45.035Z,81.49
2018-12-24T17:40:39.625Z,84.96
2018-12-24T17:45:36.299Z,83.29
2018-12-24T17:50:52.944Z,82.04
2018-12-24T17:55:49.848Z,82.48
2018-12-24T18:00:49.005Z,82.60
2018-12-24T18:11:10.110Z,82.14
2018-12-24T18:16:06.930Z,82.91
2018-12-24T18:26:06.521Z,84.69
2018-12-24T18:31:03.462Z,85.46
2018-12-24T18:36:41.983Z,86.18
2018-12-24T18:41:38.679Z,86.86
2018-12-24T18:46:35.393Z,84.72
2018-12-24T18:51:32.171Z,84.97
2018-12-24T19:01:40.002Z,85.37
2018-12-24T19:11:45.065Z,86.25
2018-12-24T19:16:42.077Z,86.79
2018-12-24T19:27:02.656Z,86.62
2018-12-24T19:32:00.236Z,86.94
2018-12-24T19:37:17.564Z,86.90
2018-12-24T19:42:15.038Z,88.15
2018-12-24T19:52:57.715Z,89.52
2018-12-24T19:57:54.610Z,89.98
2018-12-24T20:03:36.148Z,90.25
2018-12-24T20:08:34.338Z,87.70
2018-12-24T20:13:31.113Z,87.56
2018-12-24T20:18:28.027Z,88.54
2018-12-24T20:23:25.227Z,89.44
2018-12-24T20:38:37.165Z,90.17
2018-12-24T20:43:33.284Z,90.59
2018-12-24T20:48:29.414Z,89.74
2018-12-24T20:58:50.112Z,87.77
2018-12-24T21:14:35.573Z,88.03
2018-12-24T21:20:13.578Z,87.35
2018-12-24T21:25:10.762Z,86.11
2018-12-24T21:30:06.883Z,87.22
2018-12-24T21:35:44.821Z,88.35
2018-12-24T21:40:41.767Z,85.89
2018-12-24T21:45:38.963Z,87.77
2018-12-24T21:51:17.343Z,88.59
2018-12-24T21:56:33.804Z,88.85
2018-12-24T22:01:30.209Z,87.90
2018-12-24T22:07:08.282Z,86.86
2018-12-24T22:12:24.921Z,86.55
2018-12-24T22:17:21.899Z,86.69
2018-12-24T22:22:17.929Z,86.53
2018-12-24T22:27:55.980Z,87.22
2018-12-24T22:32:52.104Z,87.94
2018-12-24T22:37:48.875Z,88.94
2018-12-24T22:42:44.895Z,88.23
2018-12-24T22:47:40.941Z,87.51
2018-12-24T22:52:57.385Z,88.30
2018-12-24T23:03:09.522Z,90.27
2018-12-24T23:08:06.259Z,90.60
2018-12-24T23:13:02.375Z,90.50
2018-12-24T23:17:58.403Z,90.51
2018-12-24T23:22:54.418Z,89.08
2018-12-24T23:32:58.634Z,90.16
2018-12-24T23:37:54.654Z,90.82
2018-12-24T23:42:51.615Z,91.16
2018-12-24T23:47:47.631Z,91.45
2018-12-24T23:52:43.650Z,91.61
2018-12-24T23:58:01.381Z,91.67
